CWWU

Ingenika Point Airport

Long Pond, Canada

CWWU 191600Z 24010G17KT 15SM BKN036 BKN075 BKN220 19/10 A3041 RMK CU5AC1CI1 LAST OBS/NXT 200700Z SLP300

Observed Flight Rules
Sep-19 @ 16:00 UTC (12 hours ago)
 
Visual Flight Rules
Wind Visibility Clouds
240° at 10 knots
 Gusting to 17 knots
15 miles
  • Broken at 3,600' AGL
  • Broken at 7,500' AGL
  • Broken at 22,000' AGL
Temperatures Readings
Current 19°C / 66°F
Dewpoint 10°C / 50°F
Humidity 56%
Altimeter 30.41" Hg
Pressure 1030 hPa
Elevation 13
Observed Flight Rules
Sep-19 @ 16:00 UTC
(12 hours ago)
 
VFR
Wind Visibility
240° at 10 knots
 Gusting to 17 knots
15 miles
Clouds
  • Broken at 3,600' AGL
  • Broken at 7,500' AGL
  • Broken at 22,000' AGL
Temperature Dewpoint
19°C / 66°F 10°C / 50°F
Humidity Altimeter Pressure
56% 30.41" Hg 1030 hPa